sensor_id;sensor_type;location;lat;lon;timestamp;pressure;altitude;pressure_sealevel;temperature;humidity
2785;BME280;57944;48.722;9.316;2022-10-23T00:02:21;98160.94;;;9.76;100.00
2785;BME280;57944;48.722;9.316;2022-10-23T00:04:51;98160.16;;;9.76;100.00
2785;BME280;57944;48.722;9.316;2022-10-23T00:07:21;98153.59;;;9.67;100.00
2785;BME280;57944;48.722;9.316;2022-10-23T00:09:52;98148.88;;;9.63;100.00
2785;BME280;57944;48.722;9.316;2022-10-23T00:12:22;98141.13;;;9.72;100.00
2785;BME280;57944;48.722;9.316;2022-10-23T00:14:54;98136.84;;;9.72;100.00
2785;BME280;57944;48.722;9.316;2022-10-23T00:17:26;98127.81;;;9.70;100.00
2785;BME280;57944;48.722;9.316;2022-10-23T00:19:58;98124.00;;;9.59;100.00
2785;BME280;57944;48.722;9.316;2022-10-23T00:22:29;98117.25;;;9.51;100.00
2785;BME280;57944;48.722;9.316;2022-10-23T00:24:59;98121.25;;;9.60;100.00
2785;BME280;57944;48.722;9.316;2022-10-23T00:27:29;98116.63;;;9.64;100.00
2785;BME280;57944;48.722;9.316;2022-10-23T00:30:00;98124.66;;;9.68;100.00
2785;BME280;57944;48.722;9.316;2022-10-23T00:32:33;98122.16;;;9.74;100.00
2785;BME280;57944;48.722;9.316;2022-10-23T00:35:04;98141.25;;;9.63;100.00
2785;BME280;57944;48.722;9.316;2022-10-23T00:37:34;98141.59;;;9.60;100.00
2785;BME280;57944;48.722;9.316;2022-10-23T00:40:07;98138.47;;;9.58;100.00
2785;BME280;57944;48.722;9.316;2022-10-23T00:42:37;98138.13;;;9.61;100.00
2785;BME280;57944;48.722;9.316;2022-10-23T00:45:21;98139.00;;;9.54;100.00
2785;BME280;57944;48.722;9.316;2022-10-23T00:47:55;98147.38;;;9.48;100.00
2785;BME280;57944;48.722;9.316;2022-10-23T00:50:29;98136.63;;;9.31;100.00
2785;BME280;57944;48.722;9.316;2022-10-23T00:53:02;98136.88;;;9.36;100.00
2785;BME280;57944;48.722;9.316;2022-10-23T00:55:34;98122.44;;;9.22;100.00
2785;BME280;57944;48.722;9.316;2022-10-23T00:58:05;98125.53;;;9.17;100.00
2785;BME280;57944;48.722;9.316;2022-10-23T01:00:45;98119.66;;;9.16;100.00
2785;BME280;57944;48.722;9.316;2022-10-23T01:03:21;98114.63;;;9.23;100.00
2785;BME280;57944;48.722;9.316;2022-10-23T01:05:59;98117.13;;;9.16;100.00
2785;BME280;57944;48.722;9.316;2022-10-23T01:08:39;98126.84;;;9.13;100.00
2785;BME280;57944;48.722;9.316;2022-10-23T01:11:19;98131.03;;;9.21;100.00
2785;BME280;57944;48.722;9.316;2022-10-23T01:14:00;98127.09;;;9.18;100.00
2785;BME280;57944;48.722;9.316;2022-10-23T01:16:41;98128.19;;;9.09;100.00
2785;BME280;57944;48.722;9.316;2022-10-23T01:19:24;98130.16;;;9.13;100.00
2785;BME280;57944;48.722;9.316;2022-10-23T01:22:11;98132.59;;;9.22;100.00
2785;BME280;57944;48.722;9.316;2022-10-23T01:24:56;98123.31;;;9.29;100.00
2785;BME280;57944;48.722;9.316;2022-10-23T01:27:34;98126.13;;;9.19;100.00
2785;BME280;57944;48.722;9.316;2022-10-23T01:30:09;98114.56;;;9.16;100.00
2785;BME280;57944;48.722;9.316;2022-10-23T01:32:48;98109.50;;;9.16;100.00
2785;BME280;57944;48.722;9.316;2022-10-23T01:35:26;98105.88;;;9.11;100.00
2785;BME280;57944;48.722;9.316;2022-10-23T01:38:08;98110.97;;;9.11;100.00
2785;BME280;57944;48.722;9.316;2022-10-23T01:40:47;98111.44;;;9.00;100.00
2785;BME280;57944;48.722;9.316;2022-10-23T01:43:26;98106.19;;;9.01;100.00
2785;BME280;57944;48.722;9.316;2022-10-23T01:46:04;98099.22;;;9.10;100.00
2785;BME280;57944;48.722;9.316;2022-10-23T01:48:38;98094.09;;;9.03;100.00
2785;BME280;57944;48.722;9.316;2022-10-23T01:51:11;98090.94;;;9.01;100.00
2785;BME280;57944;48.722;9.316;2022-10-23T01:53:46;98096.31;;;8.91;100.00
2785;BME280;57944;48.722;9.316;2022-10-23T01:56:29;98089.56;;;8.84;100.00
2785;BME280;57944;48.722;9.316;2022-10-23T01:59:09;98092.28;;;8.82;100.00
2785;BME280;57944;48.722;9.316;2022-10-23T02:01:46;98077.75;;;8.76;100.00
2785;BME280;57944;48.722;9.316;2022-10-23T02:04:26;98083.97;;;8.73;100.00
2785;BME280;57944;48.722;9.316;2022-10-23T02:06:58;98088.00;;;8.68;100.00
2785;BME280;57944;48.722;9.316;2022-10-23T02:09:29;98086.34;;;8.60;100.00
2785;BME280;57944;48.722;9.316;2022-10-23T02:12:06;98081.09;;;8.62;100.00
2785;BME280;57944;48.722;9.316;2022-10-23T02:14:51;98079.69;;;8.59;100.00
2785;BME280;57944;48.722;9.316;2022-10-23T02:17:32;98070.81;;;8.55;100.00
2785;BME280;57944;48.722;9.316;2022-10-23T02:20:18;98068.91;;;8.42;100.00
2785;BME280;57944;48.722;9.316;2022-10-23T02:22:59;98073.13;;;8.50;100.00
2785;BME280;57944;48.722;9.316;2022-10-23T02:25:37;98070.19;;;8.38;100.00
2785;BME280;57944;48.722;9.316;2022-10-23T02:28:16;98068.72;;;8.44;100.00
2785;BME280;57944;48.722;9.316;2022-10-23T02:30:50;98073.13;;;8.50;100.00
2785;BME280;57944;48.722;9.316;2022-10-23T02:33:22;98062.25;;;8.56;100.00
2785;BME280;57944;48.722;9.316;2022-10-23T02:35:53;98062.88;;;8.58;100.00
2785;BME280;57944;48.722;9.316;2022-10-23T02:38:34;98056.09;;;8.65;100.00
2785;BME280;57944;48.722;9.316;2022-10-23T02:41:24;98057.69;;;8.52;100.00
2785;BME280;57944;48.722;9.316;2022-10-23T02:44:27;98061.19;;;8.65;100.00
2785;BME280;57944;48.722;9.316;2022-10-23T02:47:16;98054.25;;;8.74;100.00
2785;BME280;57944;48.722;9.316;2022-10-23T02:50:03;98055.91;;;8.82;100.00
2785;BME280;57944;48.722;9.316;2022-10-23T02:52:46;98035.59;;;8.82;100.00
2785;BME280;57944;48.722;9.316;2022-10-23T02:55:35;98030.25;;;8.77;100.00
2785;BME280;57944;48.722;9.316;2022-10-23T02:58:16;98029.03;;;8.72;100.00
2785;BME280;57944;48.722;9.316;2022-10-23T03:00:56;98035.06;;;8.71;100.00
2785;BME280;57944;48.722;9.316;2022-10-23T03:03:36;98034.28;;;8.71;100.00
2785;BME280;57944;48.722;9.316;2022-10-23T03:06:08;98028.06;;;8.73;100.00
2785;BME280;57944;48.722;9.316;2022-10-23T03:08:43;98020.97;;;8.69;100.00
2785;BME280;57944;48.722;9.316;2022-10-23T03:11:13;98031.06;;;8.62;100.00
2785;BME280;57944;48.722;9.316;2022-10-23T03:13:44;98031.06;;;8.62;100.00
2785;BME280;57944;48.722;9.316;2022-10-23T03:16:14;98031.94;;;8.69;100.00
2785;BME280;57944;48.722;9.316;2022-10-23T03:18:53;98027.31;;;8.58;100.00
2785;BME280;57944;48.722;9.316;2022-10-23T03:21:23;98027.53;;;8.63;100.00
2785;BME280;57944;48.722;9.316;2022-10-23T03:23:54;98028.41;;;8.70;100.00
2785;BME280;57944;48.722;9.316;2022-10-23T03:26:33;98023.28;;;8.64;100.00
2785;BME280;57944;48.722;9.316;2022-10-23T03:29:03;98023.59;;;8.61;100.00
2785;BME280;57944;48.722;9.316;2022-10-23T03:31:40;98018.00;;;8.65;100.00
2785;BME280;57944;48.722;9.316;2022-10-23T03:34:13;98016.44;;;8.64;100.00
2785;BME280;57944;48.722;9.316;2022-10-23T03:36:43;98018.88;;;8.72;100.00
2785;BME280;57944;48.722;9.316;2022-10-23T03:39:13;98019.13;;;8.78;100.00
2785;BME280;57944;48.722;9.316;2022-10-23T03:41:43;98010.78;;;8.84;100.00
2785;BME280;57944;48.722;9.316;2022-10-23T03:44:15;98011.03;;;8.89;100.00
2785;BME280;57944;48.722;9.316;2022-10-23T03:46:45;98003.63;;;8.94;100.00
2785;BME280;57944;48.722;9.316;2022-10-23T03:49:18;98005.41;;;8.93;100.00
2785;BME280;57944;48.722;9.316;2022-10-23T03:51:48;98007.81;;;9.02;100.00
2785;BME280;57944;48.722;9.316;2022-10-23T03:54:22;98002.38;;;9.05;100.00
2785;BME280;57944;48.722;9.316;2022-10-23T03:56:54;98000.63;;;9.05;100.00
2785;BME280;57944;48.722;9.316;2022-10-23T03:59:25;97995.06;;;8.95;100.00
2785;BME280;57944;48.722;9.316;2022-10-23T04:01:57;98001.72;;;8.96;100.00
2785;BME280;57944;48.722;9.316;2022-10-23T04:04:30;97993.97;;;9.04;100.00
2785;BME280;57944;48.722;9.316;2022-10-23T04:07:01;97999.66;;;9.06;100.00
2785;BME280;57944;48.722;9.316;2022-10-23T04:09:32;97999.09;;;9.11;100.00
2785;BME280;57944;48.722;9.316;2022-10-23T04:12:03;97998.31;;;9.10;100.00
2785;BME280;57944;48.722;9.316;2022-10-23T04:14:34;98005.69;;;9.05;100.00
2785;BME280;57944;48.722;9.316;2022-10-23T04:17:04;98010.06;;;8.90;100.00
2785;BME280;57944;48.722;9.316;2022-10-23T04:19:36;98010.91;;;8.76;100.00
2785;BME280;57944;48.722;9.316;2022-10-23T04:22:06;98005.28;;;8.65;100.00
2785;BME280;57944;48.722;9.316;2022-10-23T04:24:38;98002.84;;;8.57;100.00
2785;BME280;57944;48.722;9.316;2022-10-23T04:27:16;98008.72;;;8.72;100.00
2785;BME280;57944;48.722;9.316;2022-10-23T04:29:47;98005.09;;;8.82;100.00
2785;BME280;57944;48.722;9.316;2022-10-23T04:32:22;98011.38;;;8.86;100.00
2785;BME280;57944;48.722;9.316;2022-10-23T04:34:55;98011.97;;;8.88;100.00
2785;BME280;57944;48.722;9.316;2022-10-23T04:37:25;98014.53;;;8.88;100.00
2785;BME280;57944;48.722;9.316;2022-10-23T04:39:55;98013.56;;;8.89;100.00
2785;BME280;57944;48.722;9.316;2022-10-23T04:42:26;98013.22;;;8.92;100.00
2785;BME280;57944;48.722;9.316;2022-10-23T04:44:58;98010.78;;;9.05;100.00
2785;BME280;57944;48.722;9.316;2022-10-23T04:47:28;98013.22;;;9.13;100.00
2785;BME280;57944;48.722;9.316;2022-10-23T04:50:02;98008.50;;;9.10;100.00
2785;BME280;57944;48.722;9.316;2022-10-23T04:52:53;98000.88;;;9.10;100.00
2785;BME280;57944;48.722;9.316;2022-10-23T04:55:23;98005.59;;;9.13;100.00
2785;BME280;57944;48.722;9.316;2022-10-23T04:58:17;98003.84;;;9.14;100.00
2785;BME280;57944;48.722;9.316;2022-10-23T05:00:49;98012.50;;;8.98;100.00
2785;BME280;57944;48.722;9.316;2022-10-23T05:03:24;98014.91;;;9.06;100.00
2785;BME280;57944;48.722;9.316;2022-10-23T05:05:57;98007.06;;;9.23;100.00
2785;BME280;57944;48.722;9.316;2022-10-23T05:08:39;98003.91;;;9.21;100.00
2785;BME280;57944;48.722;9.316;2022-10-23T05:11:41;98001.72;;;9.17;100.00
2785;BME280;57944;48.722;9.316;2022-10-23T05:14:13;98003.84;;;9.14;100.00
2785;BME280;57944;48.722;9.316;2022-10-23T05:16:52;97996.81;;;9.16;100.00
2785;BME280;57944;48.722;9.316;2022-10-23T05:19:29;98001.59;;;9.04;100.00
2785;BME280;57944;48.722;9.316;2022-10-23T05:22:06;97997.84;;;9.00;100.00
2785;BME280;57944;48.722;9.316;2022-10-23T05:24:49;97991.91;;;8.93;100.00
2785;BME280;57944;48.722;9.316;2022-10-23T05:27:23;97996.56;;;8.89;100.00
2785;BME280;57944;48.722;9.316;2022-10-23T05:29:55;97998.34;;;8.89;100.00
2785;BME280;57944;48.722;9.316;2022-10-23T05:32:30;97993.84;;;8.91;100.00
2785;BME280;57944;48.722;9.316;2022-10-23T05:35:08;97994.81;;;8.90;100.00
2785;BME280;57944;48.722;9.316;2022-10-23T05:37:46;97999.16;;;8.96;100.00
2785;BME280;57944;48.722;9.316;2022-10-23T05:40:21;97985.50;;;8.97;100.00
2785;BME280;57944;48.722;9.316;2022-10-23T05:42:57;97986.81;;;8.93;100.00
2785;BME280;57944;48.722;9.316;2022-10-23T05:45:44;97989.25;;;9.01;100.00
2785;BME280;57944;48.722;9.316;2022-10-23T05:48:23;97978.53;;;9.06;100.00
2785;BME280;57944;48.722;9.316;2022-10-23T05:51:06;97982.16;;;8.97;100.00
2785;BME280;57944;48.722;9.316;2022-10-23T05:53:48;97983.38;;;9.01;100.00
2785;BME280;57944;48.722;9.316;2022-10-23T05:56:39;97971.50;;;9.08;100.00
2785;BME280;57944;48.722;9.316;2022-10-23T05:59:19;97974.00;;;9.01;100.00
2785;BME280;57944;48.722;9.316;2022-10-23T06:02:08;97978.59;;;8.91;100.00
2785;BME280;57944;48.722;9.316;2022-10-23T06:04:49;97970.84;;;8.78;100.00
2785;BME280;57944;48.722;9.316;2022-10-23T06:07:30;97969.19;;;8.70;100.00
2785;BME280;57944;48.722;9.316;2022-10-23T06:10:07;97980.41;;;8.76;100.00
2785;BME280;57944;48.722;9.316;2022-10-23T06:12:44;97975.00;;;8.85;100.00
2785;BME280;57944;48.722;9.316;2022-10-23T06:15:17;97971.31;;;8.88;100.00
2785;BME280;57944;48.722;9.316;2022-10-23T06:17:59;97966.13;;;8.96;100.00
2785;BME280;57944;48.722;9.316;2022-10-23T06:20:35;97959.94;;;9.05;100.00
2785;BME280;57944;48.722;9.316;2022-10-23T06:23:13;97959.78;;;9.07;100.00
2785;BME280;57944;48.722;9.316;2022-10-23T06:26:15;97960.56;;;9.07;100.00
2785;BME280;57944;48.722;9.316;2022-10-23T06:29:00;97961.13;;;9.03;100.00
2785;BME280;57944;48.722;9.316;2022-10-23T06:31:30;97963.09;;;9.07;100.00
2785;BME280;57944;48.722;9.316;2022-10-23T06:34:02;97961.28;;;9.23;100.00
2785;BME280;57944;48.722;9.316;2022-10-23T06:36:32;97968.44;;;9.40;100.00
2785;BME280;57944;48.722;9.316;2022-10-23T06:39:26;97968.56;;;9.54;100.00
2785;BME280;57944;48.722;9.316;2022-10-23T06:42:19;97962.13;;;9.58;100.00
2785;BME280;57944;48.722;9.316;2022-10-23T06:44:55;97958.88;;;9.71;100.00
2785;BME280;57944;48.722;9.316;2022-10-23T06:48:01;97958.34;;;9.82;100.00
2785;BME280;57944;48.722;9.316;2022-10-23T06:50:49;97960.16;;;9.88;100.00
2785;BME280;57944;48.722;9.316;2022-10-23T06:53:26;97958.28;;;10.03;100.00
2785;BME280;57944;48.722;9.316;2022-10-23T06:56:07;97962.22;;;10.06;100.00
2785;BME280;57944;48.722;9.316;2022-10-23T06:58:40;97961.84;;;10.09;100.00
2785;BME280;57944;48.722;9.316;2022-10-23T07:01:14;97962.56;;;10.31;100.00
2785;BME280;57944;48.722;9.316;2022-10-23T07:03:47;97963.22;;;10.53;100.00
2785;BME280;57944;48.722;9.316;2022-10-23T07:06:23;97960.50;;;10.74;100.00
2785;BME280;57944;48.722;9.316;2022-10-23T07:08:53;97959.38;;;10.84;100.00
2785;BME280;57944;48.722;9.316;2022-10-23T07:11:42;97958.59;;;10.96;100.00
2785;BME280;57944;48.722;9.316;2022-10-23T07:14:14;97964.22;;;10.72;100.00
2785;BME280;57944;48.722;9.316;2022-10-23T07:16:45;97967.38;;;10.67;100.00
2785;BME280;57944;48.722;9.316;2022-10-23T07:19:15;97973.50;;;10.93;100.00
2785;BME280;57944;48.722;9.316;2022-10-23T07:21:52;97968.63;;;11.18;100.00
2785;BME280;57944;48.722;9.316;2022-10-23T07:24:35;97966.84;;;11.38;100.00
2785;BME280;57944;48.722;9.316;2022-10-23T07:27:38;97973.09;;;11.56;100.00
2785;BME280;57944;48.722;9.316;2022-10-23T07:30:14;97969.56;;;11.70;100.00
2785;BME280;57944;48.722;9.316;2022-10-23T07:32:49;97963.69;;;11.90;100.00
2785;BME280;57944;48.722;9.316;2022-10-23T07:35:40;97972.69;;;11.99;100.00
2785;BME280;57944;48.722;9.316;2022-10-23T07:38:18;97973.09;;;11.96;100.00
2785;BME280;57944;48.722;9.316;2022-10-23T07:40:52;97972.13;;;11.90;100.00
2785;BME280;57944;48.722;9.316;2022-10-23T07:43:25;97976.59;;;12.01;100.00
2785;BME280;57944;48.722;9.316;2022-10-23T07:45:58;97979.72;;;12.10;100.00
2785;BME280;57944;48.722;9.316;2022-10-23T07:48:37;97995.03;;;12.23;100.00
2785;BME280;57944;48.722;9.316;2022-10-23T07:51:12;97990.66;;;12.37;100.00
2785;BME280;57944;48.722;9.316;2022-10-23T07:53:49;97985.53;;;12.30;100.00
2785;BME280;57944;48.722;9.316;2022-10-23T07:56:48;97991.28;;;12.19;100.00
2785;BME280;57944;48.722;9.316;2022-10-23T07:59:26;97981.44;;;12.29;100.00
2785;BME280;57944;48.722;9.316;2022-10-23T08:02:15;97978.75;;;12.56;100.00
2785;BME280;57944;48.722;9.316;2022-10-23T08:04:48;97970.28;;;12.62;100.00
2785;BME280;57944;48.722;9.316;2022-10-23T08:07:31;97966.13;;;12.61;100.00
2785;BME280;57944;48.722;9.316;2022-10-23T08:10:01;97968.94;;;12.53;100.00
2785;BME280;57944;48.722;9.316;2022-10-23T08:12:32;97972.44;;;12.65;100.00
2785;BME280;57944;48.722;9.316;2022-10-23T08:15:04;97969.69;;;12.60;100.00
2785;BME280;57944;48.722;9.316;2022-10-23T08:17:49;97960.53;;;12.84;100.00
2785;BME280;57944;48.722;9.316;2022-10-23T08:20:37;97953.22;;;13.13;100.00
2785;BME280;57944;48.722;9.316;2022-10-23T08:23:09;97948.72;;;13.08;100.00
2785;BME280;57944;48.722;9.316;2022-10-23T08:25:43;97943.19;;;13.11;100.00
2785;BME280;57944;48.722;9.316;2022-10-23T08:28:15;97949.47;;;13.15;100.00
2785;BME280;57944;48.722;9.316;2022-10-23T08:30:53;97950.28;;;13.41;100.00
2785;BME280;57944;48.722;9.316;2022-10-23T08:33:26;97942.19;;;13.81;100.00
2785;BME280;57944;48.722;9.316;2022-10-23T08:35:56;97941.91;;;14.07;100.00
2785;BME280;57944;48.722;9.316;2022-10-23T08:38:31;97941.50;;;14.11;100.00
2785;BME280;57944;48.722;9.316;2022-10-23T08:41:05;97932.69;;;14.37;100.00
2785;BME280;57944;48.722;9.316;2022-10-23T08:43:59;97923.78;;;14.58;100.00
2785;BME280;57944;48.722;9.316;2022-10-23T08:46:41;97922.16;;;13.96;100.00
2785;BME280;57944;48.722;9.316;2022-10-23T08:49:46;97922.97;;;14.27;100.00
2785;BME280;57944;48.722;9.316;2022-10-23T08:52:24;97927.13;;;14.70;100.00
2785;BME280;57944;48.722;9.316;2022-10-23T08:55:04;97926.06;;;14.89;100.00
2785;BME280;57944;48.722;9.316;2022-10-23T08:57:46;97929.00;;;15.05;100.00
2785;BME280;57944;48.722;9.316;2022-10-23T09:00:20;97925.41;;;15.29;100.00
2785;BME280;57944;48.722;9.316;2022-10-23T09:02:52;97929.22;;;15.50;100.00
2785;BME280;57944;48.722;9.316;2022-10-23T09:05:32;97926.34;;;15.47;100.00
2785;BME280;57944;48.722;9.316;2022-10-23T09:08:27;97920.94;;;15.60;100.00
2785;BME280;57944;48.722;9.316;2022-10-23T09:11:05;97927.63;;;15.84;100.00
2785;BME280;57944;48.722;9.316;2022-10-23T09:13:57;97920.31;;;16.17;100.00
2785;BME280;57944;48.722;9.316;2022-10-23T09:16:44;97922.38;;;15.91;100.00
2785;BME280;57944;48.722;9.316;2022-10-23T09:19:23;97914.53;;;16.26;100.00
2785;BME280;57944;48.722;9.316;2022-10-23T09:21:57;97925.69;;;16.44;100.00
2785;BME280;57944;48.722;9.316;2022-10-23T09:24:27;97921.47;;;16.83;100.00
2785;BME280;57944;48.722;9.316;2022-10-23T09:26:59;97925.22;;;17.09;100.00
2785;BME280;57944;48.722;9.316;2022-10-23T09:29:52;97928.63;;;17.32;100.00
2785;BME280;57944;48.722;9.316;2022-10-23T09:32:33;97914.31;;;17.58;100.00
2785;BME280;57944;48.722;9.316;2022-10-23T09:35:06;97914.88;;;17.82;100.00
2785;BME280;57944;48.722;9.316;2022-10-23T09:37:45;97910.47;;;18.04;100.00
2785;BME280;57944;48.722;9.316;2022-10-23T09:40:28;97913.16;;;18.15;100.00
2785;BME280;57944;48.722;9.316;2022-10-23T09:43:02;97904.63;;;18.36;100.00
2785;BME280;57944;48.722;9.316;2022-10-23T09:45:34;97900.25;;;18.69;100.00
2785;BME280;57944;48.722;9.316;2022-10-23T09:48:13;97892.47;;;18.96;100.00
2785;BME280;57944;48.722;9.316;2022-10-23T09:50:52;97879.38;;;19.08;100.00
2785;BME280;57944;48.722;9.316;2022-10-23T09:53:33;97880.28;;;19.29;100.00
2785;BME280;57944;48.722;9.316;2022-10-23T09:56:11;97876.47;;;19.47;100.00
2785;BME280;57944;48.722;9.316;2022-10-23T09:58:55;97878.66;;;19.65;100.00
2785;BME280;57944;48.722;9.316;2022-10-23T10:01:29;97879.47;;;19.71;100.00
2785;BME280;57944;48.722;9.316;2022-10-23T10:04:34;97875.94;;;19.39;100.00
2785;BME280;57944;48.722;9.316;2022-10-23T10:07:17;97896.66;;;19.50;100.00
2785;BME280;57944;48.722;9.316;2022-10-23T10:09:52;97889.53;;;19.72;100.00
2785;BME280;57944;48.722;9.316;2022-10-23T10:12:39;97887.63;;;20.15;100.00
2785;BME280;57944;48.722;9.316;2022-10-23T10:15:22;97895.16;;;20.52;98.10
2785;BME280;57944;48.722;9.316;2022-10-23T10:18:06;97889.75;;;20.80;87.57
2785;BME280;57944;48.722;9.316;2022-10-23T10:20:54;97890.78;;;21.09;76.94
2785;BME280;57944;48.722;9.316;2022-10-23T10:23:36;97886.34;;;20.38;85.02
2785;BME280;57944;48.722;9.316;2022-10-23T10:26:25;97882.22;;;20.98;85.64
2785;BME280;57944;48.722;9.316;2022-10-23T10:29:16;97874.84;;;21.52;81.02
2785;BME280;57944;48.722;9.316;2022-10-23T10:32:05;97865.09;;;21.88;76.83
2785;BME280;57944;48.722;9.316;2022-10-23T10:34:51;97871.59;;;22.35;74.35
2785;BME280;57944;48.722;9.316;2022-10-23T10:37:35;97871.84;;;22.68;70.13
2785;BME280;57944;48.722;9.316;2022-10-23T10:40:27;97871.88;;;22.97;71.24
2785;BME280;57944;48.722;9.316;2022-10-23T10:43:24;97854.13;;;23.04;66.30
2785;BME280;57944;48.722;9.316;2022-10-23T10:46:04;97840.94;;;22.95;69.88
2785;BME280;57944;48.722;9.316;2022-10-23T10:48:48;97837.38;;;22.86;63.10
2785;BME280;57944;48.722;9.316;2022-10-23T10:52:03;97825.44;;;22.85;64.25
2785;BME280;57944;48.722;9.316;2022-10-23T10:54:51;97825.03;;;23.02;63.79
2785;BME280;57944;48.722;9.316;2022-10-23T10:57:31;97829.34;;;23.12;64.19
2785;BME280;57944;48.722;9.316;2022-10-23T11:00:14;97833.97;;;23.15;59.93
2785;BME280;57944;48.722;9.316;2022-10-23T11:02:47;97842.06;;;23.13;61.05
2785;BME280;57944;48.722;9.316;2022-10-23T11:05:28;97845.09;;;23.45;59.67
2785;BME280;57944;48.722;9.316;2022-10-23T11:08:05;97834.41;;;23.65;59.80
2785;BME280;57944;48.722;9.316;2022-10-23T11:10:41;97838.25;;;23.73;64.35
2785;BME280;57944;48.722;9.316;2022-10-23T11:13:25;97841.91;;;24.09;61.03
2785;BME280;57944;48.722;9.316;2022-10-23T11:16:04;97828.50;;;24.35;62.30
2785;BME280;57944;48.722;9.316;2022-10-23T11:18:42;97813.50;;;24.13;58.47
2785;BME280;57944;48.722;9.316;2022-10-23T11:21:30;97814.25;;;24.14;60.17
2785;BME280;57944;48.722;9.316;2022-10-23T11:24:45;97817.63;;;24.14;55.67
2785;BME280;57944;48.722;9.316;2022-10-23T11:28:14;97808.28;;;24.13;58.60
2785;BME280;57944;48.722;9.316;2022-10-23T11:31:07;97791.47;;;24.05;57.09
2785;BME280;57944;48.722;9.316;2022-10-23T11:34:32;97790.34;;;23.93;58.97
2785;BME280;57944;48.722;9.316;2022-10-23T11:37:07;97790.28;;;23.60;59.95
2785;BME280;57944;48.722;9.316;2022-10-23T11:39:39;97784.97;;;23.65;59.40
2785;BME280;57944;48.722;9.316;2022-10-23T11:42:30;97779.00;;;23.64;63.02
2785;BME280;57944;48.722;9.316;2022-10-23T11:45:00;97772.69;;;23.52;63.43
2785;BME280;57944;48.722;9.316;2022-10-23T11:47:37;97770.22;;;23.41;62.82
2785;BME280;57944;48.722;9.316;2022-10-23T11:50:24;97766.09;;;23.40;62.92
2785;BME280;57944;48.722;9.316;2022-10-23T11:53:00;97770.09;;;23.52;65.38
2785;BME280;57944;48.722;9.316;2022-10-23T11:56:04;97763.06;;;23.52;64.47
2785;BME280;57944;48.722;9.316;2022-10-23T11:58:44;97770.38;;;23.69;60.10
2785;BME280;57944;48.722;9.316;2022-10-23T12:01:28;97759.97;;;23.88;61.55
2785;BME280;57944;48.722;9.316;2022-10-23T12:04:17;97748.75;;;24.06;61.16
2785;BME280;57944;48.722;9.316;2022-10-23T12:06:52;97741.91;;;24.11;59.50
2785;BME280;57944;48.722;9.316;2022-10-23T12:09:32;97741.28;;;24.19;58.49
2785;BME280;57944;48.722;9.316;2022-10-23T12:12:25;97748.56;;;24.03;57.13
2785;BME280;57944;48.722;9.316;2022-10-23T12:15:21;97743.78;;;24.24;57.92
2785;BME280;57944;48.722;9.316;2022-10-23T12:17:53;97738.59;;;24.38;55.91
2785;BME280;57944;48.722;9.316;2022-10-23T12:20:46;97733.81;;;24.59;54.94
2785;BME280;57944;48.722;9.316;2022-10-23T12:23:57;97726.94;;;24.77;54.24
2785;BME280;57944;48.722;9.316;2022-10-23T12:26:52;97725.47;;;25.12;52.34
2785;BME280;57944;48.722;9.316;2022-10-23T12:29:39;97728.09;;;24.98;54.43
2785;BME280;57944;48.722;9.316;2022-10-23T12:32:32;97719.50;;;25.11;54.14
2785;BME280;57944;48.722;9.316;2022-10-23T12:35:30;97717.19;;;25.46;52.79
2785;BME280;57944;48.722;9.316;2022-10-23T12:38:15;97718.28;;;25.45;53.08
2785;BME280;57944;48.722;9.316;2022-10-23T12:40:52;97708.00;;;25.71;52.01
2785;BME280;57944;48.722;9.316;2022-10-23T12:43:26;97705.28;;;25.99;49.67
2785;BME280;57944;48.722;9.316;2022-10-23T12:46:04;97700.66;;;26.27;50.49
2785;BME280;57944;48.722;9.316;2022-10-23T12:48:48;97688.13;;;26.46;49.24
2785;BME280;57944;48.722;9.316;2022-10-23T12:51:23;97687.41;;;26.55;48.70
2785;BME280;57944;48.722;9.316;2022-10-23T12:53:57;97689.56;;;25.68;50.47
2785;BME280;57944;48.722;9.316;2022-10-23T12:56:34;97679.00;;;25.95;50.82
2785;BME280;57944;48.722;9.316;2022-10-23T12:59:15;97680.59;;;26.45;49.52
2785;BME280;57944;48.722;9.316;2022-10-23T13:01:46;97680.38;;;26.55;48.05
2785;BME280;57944;48.722;9.316;2022-10-23T13:04:27;97673.75;;;26.58;47.29
2785;BME280;57944;48.722;9.316;2022-10-23T13:07:01;97667.94;;;26.61;46.74
2785;BME280;57944;48.722;9.316;2022-10-23T13:09:41;97657.88;;;26.05;49.29
2785;BME280;57944;48.722;9.316;2022-10-23T13:12:29;97640.00;;;25.45;51.00
2785;BME280;57944;48.722;9.316;2022-10-23T13:15:14;97628.50;;;24.60;54.09
2785;BME280;57944;48.722;9.316;2022-10-23T13:17:58;97641.28;;;24.47;57.39
2785;BME280;57944;48.722;9.316;2022-10-23T13:20:31;97656.16;;;23.35;61.21
2785;BME280;57944;48.722;9.316;2022-10-23T13:23:16;97647.91;;;23.47;60.36
2785;BME280;57944;48.722;9.316;2022-10-23T13:25:57;97649.72;;;22.89;66.97
2785;BME280;57944;48.722;9.316;2022-10-23T13:28:30;97645.75;;;22.73;68.39
2785;BME280;57944;48.722;9.316;2022-10-23T13:31:06;97642.53;;;22.81;64.87
2785;BME280;57944;48.722;9.316;2022-10-23T13:33:38;97638.53;;;22.70;68.63
2785;BME280;57944;48.722;9.316;2022-10-23T13:36:22;97637.50;;;22.71;67.40
2785;BME280;57944;48.722;9.316;2022-10-23T13:39:11;97642.06;;;22.79;67.63
2785;BME280;57944;48.722;9.316;2022-10-23T13:41:45;97636.94;;;22.93;66.34
2785;BME280;57944;48.722;9.316;2022-10-23T13:44:19;97652.25;;;22.94;66.65
2785;BME280;57944;48.722;9.316;2022-10-23T13:46:50;97638.00;;;23.49;66.44
2785;BME280;57944;48.722;9.316;2022-10-23T13:49:21;97632.94;;;24.04;63.40
2785;BME280;57944;48.722;9.316;2022-10-23T13:51:53;97632.66;;;24.33;60.58
2785;BME280;57944;48.722;9.316;2022-10-23T13:54:26;97632.34;;;24.07;59.28
2785;BME280;57944;48.722;9.316;2022-10-23T13:57:00;97633.41;;;24.06;59.25
2785;BME280;57944;48.722;9.316;2022-10-23T13:59:30;97636.31;;;23.91;62.04
2785;BME280;57944;48.722;9.316;2022-10-23T14:02:00;97639.25;;;23.84;63.12
2785;BME280;57944;48.722;9.316;2022-10-23T14:04:31;97629.16;;;23.82;66.73
2785;BME280;57944;48.722;9.316;2022-10-23T14:07:01;97642.88;;;23.69;70.34
2785;BME280;57944;48.722;9.316;2022-10-23T14:09:31;97638.19;;;23.71;65.85
2785;BME280;57944;48.722;9.316;2022-10-23T14:12:04;97632.53;;;23.64;65.65